sensor_id;sensor_type;location;lat;lon;timestamp;pressure;altitude;pressure_sealevel;temperature;humidity
48035;BME280;33812;46.480;6.834;2023-03-13T00:00:14;93602.84;;;20.22;43.42
48035;BME280;33812;46.480;6.834;2023-03-13T00:04:18;93601.63;;;20.23;43.52
48035;BME280;33812;46.480;6.834;2023-03-13T00:08:22;93591.38;;;20.24;43.58
48035;BME280;33812;46.480;6.834;2023-03-13T00:12:25;93583.09;;;20.24;43.48
48035;BME280;33812;46.480;6.834;2023-03-13T00:16:29;93591.38;;;20.24;43.43
48035;BME280;33812;46.480;6.834;2023-03-13T00:20:33;93586.28;;;20.22;43.27
48035;BME280;33812;46.480;6.834;2023-03-13T00:24:36;93591.38;;;20.24;43.12
48035;BME280;33812;46.480;6.834;2023-03-13T00:28:39;93599.22;;;20.25;43.04
48035;BME280;33812;46.480;6.834;2023-03-13T00:32:42;93596.88;;;20.24;43.39
48035;BME280;33812;46.480;6.834;2023-03-13T00:36:45;93604.38;;;20.23;43.13
48035;BME280;33812;46.480;6.834;2023-03-13T00:40:48;93601.63;;;20.23;43.21
48035;BME280;33812;46.480;6.834;2023-03-13T00:44:52;93595.00;;;20.21;43.14
48035;BME280;33812;46.480;6.834;2023-03-13T00:48:54;93609.47;;;20.25;43.13
48035;BME280;33812;46.480;6.834;2023-03-13T00:52:56;93613.44;;;20.24;42.98
48035;BME280;33812;46.480;6.834;2023-03-13T00:57:00;93599.31;;;20.22;42.91
48035;BME280;33812;46.480;6.834;2023-03-13T01:01:06;93610.69;;;20.24;42.95
48035;BME280;33812;46.480;6.834;2023-03-13T01:05:09;93601.19;;;20.25;42.82
48035;BME280;33812;46.480;6.834;2023-03-13T01:09:18;93624.91;;;20.22;42.87
48035;BME280;33812;46.480;6.834;2023-03-13T01:13:23;93603.72;;;20.19;42.61
48035;BME280;33812;46.480;6.834;2023-03-13T01:17:28;93628.03;;;20.24;42.50
48035;BME280;33812;46.480;6.834;2023-03-13T01:21:42;93624.47;;;20.24;42.49
48035;BME280;33812;46.480;6.834;2023-03-13T01:26:08;93602.41;;;20.24;42.14
48035;BME280;33812;46.480;6.834;2023-03-13T01:30:12;93582.31;;;20.23;42.57
48035;BME280;33812;46.480;6.834;2023-03-13T01:34:15;93609.91;;;20.23;42.31
48035;BME280;33812;46.480;6.834;2023-03-13T01:38:17;93585.06;;;20.23;42.48
48035;BME280;33812;46.480;6.834;2023-03-13T01:42:19;93594.13;;;20.24;42.35
48035;BME280;33812;46.480;6.834;2023-03-13T01:46:23;93568.94;;;20.22;42.30
48035;BME280;33812;46.480;6.834;2023-03-13T01:50:28;93550.75;;;20.24;42.57
48035;BME280;33812;46.480;6.834;2023-03-13T01:54:33;93534.19;;;20.24;42.50
48035;BME280;33812;46.480;6.834;2023-03-13T01:58:36;93538.16;;;20.23;42.27
48035;BME280;33812;46.480;6.834;2023-03-13T02:02:45;93525.13;;;20.24;42.37
48035;BME280;33812;46.480;6.834;2023-03-13T02:06:57;93520.81;;;20.23;42.28
48035;BME280;33812;46.480;6.834;2023-03-13T02:11:07;93512.53;;;20.23;41.93
48035;BME280;33812;46.480;6.834;2023-03-13T02:15:13;93513.31;;;20.23;42.13
48035;BME280;33812;46.480;6.834;2023-03-13T02:19:19;93517.31;;;20.22;42.17
48035;BME280;33812;46.480;6.834;2023-03-13T02:23:29;93524.34;;;20.23;41.56
48035;BME280;33812;46.480;6.834;2023-03-13T02:27:33;93503.50;;;20.22;41.76
48035;BME280;33812;46.480;6.834;2023-03-13T02:31:35;93518.50;;;20.21;41.24
48035;BME280;33812;46.480;6.834;2023-03-13T02:35:38;93517.31;;;20.22;41.70
48035;BME280;33812;46.480;6.834;2023-03-13T02:39:45;93500.41;;;20.20;41.47
48035;BME280;33812;46.480;6.834;2023-03-13T02:43:50;93502.72;;;20.22;41.60
48035;BME280;33812;46.480;6.834;2023-03-13T02:47:51;93493.22;;;20.23;41.65
48035;BME280;33812;46.480;6.834;2023-03-13T02:51:56;93481.44;;;20.22;41.60
48035;BME280;33812;46.480;6.834;2023-03-13T02:55:58;93468.84;;;20.21;41.57
48035;BME280;33812;46.480;6.834;2023-03-13T03:00:02;93470.41;;;20.22;41.41
48035;BME280;33812;46.480;6.834;2023-03-13T03:04:06;93448.31;;;20.22;41.51
48035;BME280;33812;46.480;6.834;2023-03-13T03:08:13;93455.38;;;20.23;41.28
48035;BME280;33812;46.480;6.834;2023-03-13T03:12:16;93437.28;;;20.22;41.40
48035;BME280;33812;46.480;6.834;2023-03-13T03:16:32;93448.31;;;20.22;41.13
48035;BME280;33812;46.480;6.834;2023-03-13T03:20:43;93442.47;;;20.20;40.90
48035;BME280;33812;46.480;6.834;2023-03-13T03:24:46;93447.53;;;20.22;40.77
48035;BME280;33812;46.480;6.834;2023-03-13T03:28:49;93455.03;;;20.21;40.56
48035;BME280;33812;46.480;6.834;2023-03-13T03:32:52;93466.75;;;20.25;41.15
48035;BME280;33812;46.480;6.834;2023-03-13T03:36:53;93453.06;;;20.22;40.81
48035;BME280;33812;46.480;6.834;2023-03-13T03:41:02;93468.38;;;20.23;40.76
48035;BME280;33812;46.480;6.834;2023-03-13T03:45:15;93457.34;;;20.23;40.78
48035;BME280;33812;46.480;6.834;2023-03-13T03:49:19;93451.06;;;20.22;41.16
48035;BME280;33812;46.480;6.834;2023-03-13T03:53:20;93444.78;;;20.22;41.21
48035;BME280;33812;46.480;6.834;2023-03-13T03:57:23;93438.47;;;20.21;41.19
48035;BME280;33812;46.480;6.834;2023-03-13T04:01:25;93452.63;;;20.23;41.21
48035;BME280;33812;46.480;6.834;2023-03-13T04:05:28;93454.59;;;20.23;41.13
48035;BME280;33812;46.480;6.834;2023-03-13T04:09:34;93434.97;;;20.21;41.14
48035;BME280;33812;46.480;6.834;2023-03-13T04:13:36;93451.06;;;20.22;40.81
48035;BME280;33812;46.480;6.834;2023-03-13T04:17:43;93445.56;;;20.22;41.02
48035;BME280;33812;46.480;6.834;2023-03-13T04:21:46;93441.25;;;20.21;41.00
48035;BME280;33812;46.480;6.834;2023-03-13T04:26:01;93456.59;;;20.22;40.93
48035;BME280;33812;46.480;6.834;2023-03-13T04:30:10;93445.56;;;20.22;41.07
48035;BME280;33812;46.480;6.834;2023-03-13T04:34:12;93460.56;;;20.21;40.63
48035;BME280;33812;46.480;6.834;2023-03-13T04:38:15;93453.84;;;20.22;40.33
48035;BME280;33812;46.480;6.834;2023-03-13T04:42:17;93458.56;;;20.22;40.51
48035;BME280;33812;46.480;6.834;2023-03-13T04:46:19;93474.34;;;20.21;40.20
48035;BME280;33812;46.480;6.834;2023-03-13T04:50:58;93461.78;;;20.20;40.30
48035;BME280;33812;46.480;6.834;2023-03-13T04:55:02;93472.81;;;20.20;40.43
48035;BME280;33812;46.480;6.834;2023-03-13T04:59:04;93486.59;;;20.20;40.22
48035;BME280;33812;46.480;6.834;2023-03-13T05:03:07;93477.44;;;20.23;40.25
48035;BME280;33812;46.480;6.834;2023-03-13T05:07:11;93450.75;;;20.20;40.22
48035;BME280;33812;46.480;6.834;2023-03-13T05:11:16;93451.53;;;20.21;40.13
48035;BME280;33812;46.480;6.834;2023-03-13T05:15:19;93451.84;;;20.23;40.01
48035;BME280;33812;46.480;6.834;2023-03-13T05:19:20;93460.91;;;20.23;40.21
48035;BME280;33812;46.480;6.834;2023-03-13T05:23:31;93449.84;;;20.23;40.35
48035;BME280;33812;46.480;6.834;2023-03-13T05:27:37;93449.50;;;20.21;40.14
48035;BME280;33812;46.480;6.834;2023-03-13T05:31:38;93454.72;;;20.19;39.48
48035;BME280;33812;46.480;6.834;2023-03-13T05:35:41;93457.47;;;20.19;39.38
48035;BME280;33812;46.480;6.834;2023-03-13T05:39:47;93463.75;;;20.20;39.52
48035;BME280;33812;46.480;6.834;2023-03-13T05:43:50;93482.31;;;20.19;39.20
48035;BME280;33812;46.480;6.834;2023-03-13T05:47:53;93456.69;;;20.19;39.17
48035;BME280;33812;46.480;6.834;2023-03-13T05:51:55;93431.88;;;20.19;38.65
48035;BME280;33812;46.480;6.834;2023-03-13T05:55:57;93427.53;;;20.17;38.89
48035;BME280;33812;46.480;6.834;2023-03-13T06:00:02;93429.00;;;20.22;38.76
48035;BME280;33812;46.480;6.834;2023-03-13T06:04:04;93406.81;;;20.26;39.55
48035;BME280;33812;46.480;6.834;2023-03-13T06:08:06;93396.22;;;20.24;39.08
48035;BME280;33812;46.480;6.834;2023-03-13T06:12:10;93415.97;;;20.23;39.27
48035;BME280;33812;46.480;6.834;2023-03-13T06:16:14;93398.53;;;20.26;39.74
48035;BME280;33812;46.480;6.834;2023-03-13T06:20:17;93387.16;;;20.24;39.72
48035;BME280;33812;46.480;6.834;2023-03-13T06:24:21;93408.47;;;20.23;39.45
48035;BME280;33812;46.480;6.834;2023-03-13T06:28:23;93406.47;;;20.24;38.92
48035;BME280;33812;46.480;6.834;2023-03-13T06:32:28;93416.19;;;20.28;39.43
48035;BME280;33812;46.480;6.834;2023-03-13T06:36:30;93393.03;;;20.26;39.16
48035;BME280;33812;46.480;6.834;2023-03-13T06:40:32;93385.84;;;20.28;39.70
48035;BME280;33812;46.480;6.834;2023-03-13T06:44:34;93378.78;;;20.27;39.40
48035;BME280;33812;46.480;6.834;2023-03-13T06:48:37;93374.16;;;20.24;38.10
48035;BME280;33812;46.480;6.834;2023-03-13T06:52:39;93371.28;;;20.15;38.86
48035;BME280;33812;46.480;6.834;2023-03-13T06:56:41;93373.47;;;20.20;37.64
48035;BME280;33812;46.480;6.834;2023-03-13T07:00:43;93377.03;;;20.21;38.53
48035;BME280;33812;46.480;6.834;2023-03-13T07:04:47;93382.09;;;20.22;38.63
48035;BME280;33812;46.480;6.834;2023-03-13T07:08:49;93378.09;;;20.23;38.75
48035;BME280;33812;46.480;6.834;2023-03-13T07:12:51;93364.75;;;20.22;38.25
48035;BME280;33812;46.480;6.834;2023-03-13T07:16:54;93374.91;;;20.25;38.06
48035;BME280;33812;46.480;6.834;2023-03-13T07:20:59;93361.09;;;20.25;38.24
48035;BME280;33812;46.480;6.834;2023-03-13T07:25:05;93365.88;;;20.24;38.37
48035;BME280;33812;46.480;6.834;2023-03-13T07:29:07;93360.78;;;20.23;38.02
48035;BME280;33812;46.480;6.834;2023-03-13T07:33:09;93370.72;;;20.20;37.94
48035;BME280;33812;46.480;6.834;2023-03-13T07:37:12;93354.06;;;20.24;37.98
48035;BME280;33812;46.480;6.834;2023-03-13T07:41:14;93356.81;;;20.24;37.96
48035;BME280;33812;46.480;6.834;2023-03-13T07:45:16;93350.84;;;20.25;37.71
48035;BME280;33812;46.480;6.834;2023-03-13T07:49:18;93350.84;;;20.25;37.71
48035;BME280;33812;46.480;6.834;2023-03-13T07:53:22;93359.47;;;20.27;37.64
48035;BME280;33812;46.480;6.834;2023-03-13T07:57:24;93344.09;;;20.26;37.12
48035;BME280;33812;46.480;6.834;2023-03-13T08:01:27;93341.69;;;20.28;37.07
48035;BME280;33812;46.480;6.834;2023-03-13T08:05:29;93334.63;;;20.27;36.58
48035;BME280;33812;46.480;6.834;2023-03-13T08:09:37;93331.09;;;20.27;36.93
48035;BME280;33812;46.480;6.834;2023-03-13T08:13:47;93307.03;;;20.27;37.09
48035;BME280;33812;46.480;6.834;2023-03-13T08:17:50;93303.06;;;20.28;36.79
48035;BME280;33812;46.480;6.834;2023-03-13T08:21:52;93310.13;;;20.29;36.92
48035;BME280;33812;46.480;6.834;2023-03-13T08:26:02;93315.66;;;20.29;36.49
48035;BME280;33812;46.480;6.834;2023-03-13T08:30:05;93321.16;;;20.29;36.79
48035;BME280;33812;46.480;6.834;2023-03-13T08:34:07;93312.88;;;20.29;37.00
48035;BME280;33812;46.480;6.834;2023-03-13T08:38:09;93314.41;;;20.31;36.64
48035;BME280;33812;46.480;6.834;2023-03-13T08:42:12;93319.59;;;20.28;36.73
48035;BME280;33812;46.480;6.834;2023-03-13T08:46:14;93306.13;;;20.31;36.85
48035;BME280;33812;46.480;6.834;2023-03-13T08:50:16;93300.28;;;20.28;36.72
48035;BME280;33812;46.480;6.834;2023-03-13T08:54:18;93311.66;;;20.31;36.86
48035;BME280;33812;46.480;6.834;2023-03-13T08:58:21;93308.47;;;20.32;36.63
48035;BME280;33812;46.480;6.834;2023-03-13T09:02:23;93272.25;;;20.30;36.95
48035;BME280;33812;46.480;6.834;2023-03-13T09:06:25;93250.94;;;20.31;36.64
48035;BME280;33812;46.480;6.834;2023-03-13T09:10:26;93258.00;;;20.32;36.70
48035;BME280;33812;46.480;6.834;2023-03-13T09:14:30;93256.47;;;20.31;36.82
48035;BME280;33812;46.480;6.834;2023-03-13T09:18:32;93250.16;;;20.30;36.72
48035;BME280;33812;46.480;6.834;2023-03-13T09:22:34;93244.19;;;20.32;36.80
48035;BME280;33812;46.480;6.834;2023-03-13T09:26:36;93230.41;;;20.32;36.52
48035;BME280;33812;46.480;6.834;2023-03-13T09:30:40;93239.47;;;20.32;36.47
48035;BME280;33812;46.480;6.834;2023-03-13T09:34:42;93220.94;;;20.33;36.41
48035;BME280;33812;46.480;6.834;2023-03-13T09:38:43;93210.34;;;20.31;36.35
48035;BME280;33812;46.480;6.834;2023-03-13T09:42:47;93204.38;;;20.33;36.34
48035;BME280;33812;46.480;6.834;2023-03-13T09:46:59;93202.34;;;20.33;36.41
48035;BME280;33812;46.480;6.834;2023-03-13T09:51:06;93203.91;;;20.34;36.26
48035;BME280;33812;46.480;6.834;2023-03-13T09:55:17;93192.09;;;20.34;36.01
48035;BME280;33812;46.480;6.834;2023-03-13T09:59:26;93196.41;;;20.35;36.31
48035;BME280;33812;46.480;6.834;2023-03-13T10:03:34;93199.94;;;20.35;36.39
48035;BME280;33812;46.480;6.834;2023-03-13T10:07:39;93186.59;;;20.34;36.29
48035;BME280;33812;46.480;6.834;2023-03-13T10:11:43;93168.81;;;20.35;36.31
48035;BME280;33812;46.480;6.834;2023-03-13T10:15:50;93166.38;;;20.37;36.22
48035;BME280;33812;46.480;6.834;2023-03-13T10:19:59;93148.72;;;20.34;36.06
48035;BME280;33812;46.480;6.834;2023-03-13T10:24:13;93152.13;;;20.38;36.26
48035;BME280;33812;46.480;6.834;2023-03-13T10:28:17;93145.38;;;20.39;36.30
48035;BME280;33812;46.480;6.834;2023-03-13T10:32:28;93143.09;;;20.38;36.24
48035;BME280;33812;46.480;6.834;2023-03-13T10:36:40;93136.34;;;20.39;36.15
48035;BME280;33812;46.480;6.834;2023-03-13T10:40:42;93133.13;;;20.40;36.41
48035;BME280;33812;46.480;6.834;2023-03-13T10:44:44;93133.00;;;20.44;36.34
48035;BME280;33812;46.480;6.834;2023-03-13T10:48:46;93122.41;;;20.42;36.54
48035;BME280;33812;46.480;6.834;2023-03-13T10:52:50;93112.16;;;20.43;36.43
48035;BME280;33812;46.480;6.834;2023-03-13T10:57:07;93099.88;;;20.44;36.41
48035;BME280;33812;46.480;6.834;2023-03-13T11:01:16;93084.09;;;20.45;36.49
48035;BME280;33812;46.480;6.834;2023-03-13T11:05:36;93073.84;;;20.45;36.48
48035;BME280;33812;46.480;6.834;2023-03-13T11:09:40;93072.59;;;20.46;36.41
48035;BME280;33812;46.480;6.834;2023-03-13T11:13:43;93059.25;;;20.45;36.43
48035;BME280;33812;46.480;6.834;2023-03-13T11:17:46;93043.75;;;20.47;36.59
48035;BME280;33812;46.480;6.834;2023-03-13T11:26:26;93046.84;;;20.49;36.40
48035;BME280;33812;46.480;6.834;2023-03-13T11:30:44;93044.88;;;20.50;36.58
48035;BME280;33812;46.480;6.834;2023-03-13T11:34:52;93034.28;;;20.48;36.58
48035;BME280;33812;46.480;6.834;2023-03-13T11:39:01;93029.09;;;20.50;36.30
48035;BME280;33812;46.480;6.834;2023-03-13T11:43:24;93029.38;;;20.52;36.49
48035;BME280;33812;46.480;6.834;2023-03-13T11:47:40;93030.16;;;20.53;36.39
48035;BME280;33812;46.480;6.834;2023-03-13T11:51:57;93026.03;;;20.58;36.86
48035;BME280;33812;46.480;6.834;2023-03-13T11:56:14;93004.41;;;20.56;36.87
48035;BME280;33812;46.480;6.834;2023-03-13T12:00:28;93003.94;;;20.58;36.87
48035;BME280;33812;46.480;6.834;2023-03-13T12:04:34;93000.44;;;20.57;37.32
48035;BME280;33812;46.480;6.834;2023-03-13T12:08:41;92991.38;;;20.57;37.30
48035;BME280;33812;46.480;6.834;2023-03-13T12:12:50;92975.91;;;20.59;37.43
48035;BME280;33812;46.480;6.834;2023-03-13T12:16:59;92950.75;;;20.57;37.75
48035;BME280;33812;46.480;6.834;2023-03-13T12:21:13;92945.84;;;20.61;37.81
48035;BME280;33812;46.480;6.834;2023-03-13T12:25:21;92924.53;;;20.62;37.82
48035;BME280;33812;46.480;6.834;2023-03-13T12:29:42;92923.28;;;20.63;37.78
48035;BME280;33812;46.480;6.834;2023-03-13T12:33:52;92899.69;;;20.62;38.22
48035;BME280;33812;46.480;6.834;2023-03-13T12:38:00;92887.41;;;20.63;38.15
48035;BME280;33812;46.480;6.834;2023-03-13T12:42:15;92879.91;;;20.63;38.37
48035;BME280;33812;46.480;6.834;2023-03-13T12:46:38;92882.97;;;20.65;38.46
48035;BME280;33812;46.480;6.834;2023-03-13T12:50:54;92867.94;;;20.66;38.56
48035;BME280;33812;46.480;6.834;2023-03-13T12:59:37;92832.34;;;20.69;38.66
48035;BME280;33812;46.480;6.834;2023-03-13T13:03:49;92829.59;;;20.69;38.65
48035;BME280;33812;46.480;6.834;2023-03-13T13:07:55;92816.88;;;20.71;38.64
48035;BME280;33812;46.480;6.834;2023-03-13T13:12:01;92801.53;;;20.70;38.80
48035;BME280;33812;46.480;6.834;2023-03-13T13:16:10;92790.47;;;20.70;38.74
48035;BME280;33812;46.480;6.834;2023-03-13T13:20:43;92790.47;;;20.70;38.70
48035;BME280;33812;46.480;6.834;2023-03-13T13:24:50;92761.19;;;20.73;38.79
48035;BME280;33812;46.480;6.834;2023-03-13T13:28:56;92769.03;;;20.74;38.66
48035;BME280;33812;46.480;6.834;2023-03-13T13:33:33;92746.94;;;20.74;38.59
48035;BME280;33812;46.480;6.834;2023-03-13T13:37:35;92742.94;;;20.75;38.52
48035;BME280;33812;46.480;6.834;2023-03-13T13:41:41;92745.69;;;20.75;38.64
48035;BME280;33812;46.480;6.834;2023-03-13T13:45:57;92731.44;;;20.77;38.63
48035;BME280;33812;46.480;6.834;2023-03-13T13:50:00;92719.16;;;20.78;38.73
48035;BME280;33812;46.480;6.834;2023-03-13T13:54:11;92716.72;;;20.80;38.66
48035;BME280;33812;46.480;6.834;2023-03-13T13:58:30;92707.66;;;20.80;38.64
48035;BME280;33812;46.480;6.834;2023-03-13T14:02:34;92695.38;;;20.81;38.71
48035;BME280;33812;46.480;6.834;2023-03-13T14:06:38;92679.13;;;20.83;38.63
48035;BME280;33812;46.480;6.834;2023-03-13T14:10:49;92672.38;;;20.84;38.64
48035;BME280;33812;46.480;6.834;2023-03-13T14:15:12;92657.03;;;20.83;38.58
48035;BME280;33812;46.480;6.834;2023-03-13T14:19:26;92633.72;;;20.84;38.61
48035;BME280;33812;46.480;6.834;2023-03-13T14:23:37;92646.28;;;20.85;38.92
48035;BME280;33812;46.480;6.834;2023-03-13T14:27:42;92641.06;;;20.87;38.58
48035;BME280;33812;46.480;6.834;2023-03-13T14:31:50;92629.25;;;20.86;39.02
48035;BME280;33812;46.480;6.834;2023-03-13T14:35:53;92610.38;;;20.85;38.76
48035;BME280;33812;46.480;6.834;2023-03-13T14:40:07;92586.31;;;20.85;38.93
48035;BME280;33812;46.480;6.834;2023-03-13T14:44:18;92571.09;;;20.90;38.65
48035;BME280;33812;46.480;6.834;2023-03-13T14:48:27;92570.78;;;20.88;38.40
48035;BME280;33812;46.480;6.834;2023-03-13T14:52:45;92558.97;;;20.87;38.46
48035;BME280;33812;46.480;6.834;2023-03-13T14:57:11;92552.22;;;20.88;38.46
48035;BME280;33812;46.480;6.834;2023-03-13T15:01:23;92537.97;;;20.90;38.43
48035;BME280;33812;46.480;6.834;2023-03-13T15:05:37;92519.88;;;20.89;38.49
48035;BME280;33812;46.480;6.834;2023-03-13T15:09:41;92507.56;;;20.90;38.44
48035;BME280;33812;46.480;6.834;2023-03-13T15:13:45;92483.97;;;20.89;38.51
48035;BME280;33812;46.480;6.834;2023-03-13T15:17:47;92463.41;;;20.90;38.39
48035;BME280;33812;46.480;6.834;2023-03-13T15:21:51;92445.31;;;20.89;38.41
48035;BME280;33812;46.480;6.834;2023-03-13T15:25:54;92439.31;;;20.90;38.24
48035;BME280;33812;46.480;6.834;2023-03-13T15:29:56;92433.78;;;20.90;38.23
48035;BME280;33812;46.480;6.834;2023-03-13T15:33:59;92429.31;;;20.93;38.21
48035;BME280;33812;46.480;6.834;2023-03-13T15:38:02;92404.00;;;20.95;38.28
48035;BME280;33812;46.480;6.834;2023-03-13T15:42:04;92400.50;;;20.94;38.58
48035;BME280;33812;46.480;6.834;2023-03-13T15:46:09;92378.09;;;20.92;38.66
48035;BME280;33812;46.480;6.834;2023-03-13T15:50:15;92373.16;;;20.96;38.43
48035;BME280;33812;46.480;6.834;2023-03-13T15:54:19;92348.31;;;20.96;38.56
48035;BME280;33812;46.480;6.834;2023-03-13T15:58:21;92331.72;;;20.96;38.29
48035;BME280;33812;46.480;6.834;2023-03-13T16:02:23;92326.50;;;20.98;38.47
48035;BME280;33812;46.480;6.834;2023-03-13T16:06:25;92320.50;;;21.00;38.40
48035;BME280;33812;46.480;6.834;2023-03-13T16:10:32;92335.56;;;20.99;38.47
48035;BME280;33812;46.480;6.834;2023-03-13T16:14:34;92321.28;;;21.00;38.49
48035;BME280;33812;46.480;6.834;2023-03-13T16:18:36;92323.56;;;21.02;38.78
48035;BME280;33812;46.480;6.834;2023-03-13T16:22:38;92312.34;;;21.06;38.68
48035;BME280;33812;46.480;6.834;2023-03-13T16:26:41;92308.88;;;20.96;37.34
48035;BME280;33812;46.480;6.834;2023-03-13T16:30:45;92313.66;;;20.95;36.87
48035;BME280;33812;46.480;6.834;2023-03-13T16:34:49;92305.19;;;20.99;37.00
48035;BME280;33812;46.480;6.834;2023-03-13T16:38:51;92298.78;;;20.93;36.75
48035;BME280;33812;46.480;6.834;2023-03-13T16:42:56;92307.34;;;20.95;36.90
48035;BME280;33812;46.480;6.834;2023-03-13T16:46:58;92295.38;;;20.98;36.61
48035;BME280;33812;46.480;6.834;2023-03-13T16:51:07;92289.84;;;20.98;36.37
48035;BME280;33812;46.480;6.834;2023-03-13T16:55:18;92298.41;;;21.00;36.29
48035;BME280;33812;46.480;6.834;2023-03-13T16:59:34;92299.66;;;20.99;36.39
48035;BME280;33812;46.480;6.834;2023-03-13T17:03:37;92289.66;;;21.01;36.78
48035;BME280;33812;46.480;6.834;2023-03-13T17:07:41;92305.66;;;20.97;36.44
48035;BME280;33812;46.480;6.834;2023-03-13T17:11:44;92302.44;;;20.89;36.25
48035;BME280;33812;46.480;6.834;2023-03-13T17:15:49;92282.56;;;20.85;36.27
48035;BME280;33812;46.480;6.834;2023-03-13T17:19:58;92296.13;;;20.98;37.20
48035;BME280;33812;46.480;6.834;2023-03-13T17:24:08;92281.66;;;21.04;37.15
48035;BME280;33812;46.480;6.834;2023-03-13T17:28:13;92277.38;;;21.02;37.28
48035;BME280;33812;46.480;6.834;2023-03-13T17:32:18;92255.84;;;21.07;37.51
48035;BME280;33812;46.480;6.834;2023-03-13T17:36:22;92259.38;;;21.07;37.37
48035;BME280;33812;46.480;6.834;2023-03-13T17:40:26;92245.47;;;21.01;37.45
48035;BME280;33812;46.480;6.834;2023-03-13T17:44:33;92237.28;;;21.07;37.78
48035;BME280;33812;46.480;6.834;2023-03-13T17:48:40;92237.09;;;21.11;38.14
48035;BME280;33812;46.480;6.834;2023-03-13T17:52:44;92220.53;;;21.11;38.27
48035;BME280;33812;46.480;6.834;2023-03-13T17:56:49;92202.25;;;21.13;38.68
48035;BME280;33812;46.480;6.834;2023-03-13T18:00:53;92167.75;;;21.09;38.57
48035;BME280;33812;46.480;6.834;2023-03-13T18:05:04;92177.84;;;21.12;39.23
48035;BME280;33812;46.480;6.834;2023-03-13T18:09:10;92160.81;;;21.13;39.90
48035;BME280;33812;46.480;6.834;2023-03-13T18:13:15;92160.81;;;21.13;39.80
48035;BME280;33812;46.480;6.834;2023-03-13T18:17:20;92167.56;;;21.12;39.98
48035;BME280;33812;46.480;6.834;2023-03-13T18:21:23;92165.84;;;21.15;40.22
48035;BME280;33812;46.480;6.834;2023-03-13T18:25:29;92158.78;;;21.14;40.44
48035;BME280;33812;46.480;6.834;2023-03-13T18:29:32;92167.38;;;21.16;40.18
48035;BME280;33812;46.480;6.834;2023-03-13T18:33:44;92179.97;;;21.17;41.09
48035;BME280;33812;46.480;6.834;2023-03-13T18:37:48;92194.03;;;21.19;41.19
48035;BME280;33812;46.480;6.834;2023-03-13T18:41:54;92196.78;;;21.19;40.58
48035;BME280;33812;46.480;6.834;2023-03-13T18:45:56;92211.38;;;21.20;40.76
48035;BME280;33812;46.480;6.834;2023-03-13T18:50:01;92193.28;;;21.19;40.87
48035;BME280;33812;46.480;6.834;2023-03-13T18:54:07;92189.28;;;21.20;41.23
48035;BME280;33812;46.480;6.834;2023-03-13T18:58:19;92193.00;;;21.17;40.93
48035;BME280;33812;46.480;6.834;2023-03-13T19:02:21;92225.00;;;21.23;40.95
48035;BME280;33812;46.480;6.834;2023-03-13T19:06:27;92204.59;;;21.21;40.79
48035;BME280;33812;46.480;6.834;2023-03-13T19:10:31;92235.00;;;21.21;40.74
48035;BME280;33812;46.480;6.834;2023-03-13T19:14:36;92224.41;;;21.19;41.04
48035;BME280;33812;46.480;6.834;2023-03-13T19:18:40;92243.00;;;21.19;41.05
48035;BME280;33812;46.480;6.834;2023-03-13T19:22:43;92251.19;;;21.13;39.36
48035;BME280;33812;46.480;6.834;2023-03-13T19:26:47;92257.16;;;20.96;38.48
48035;BME280;33812;46.480;6.834;2023-03-13T19:30:51;92236.72;;;21.03;39.25
48035;BME280;33812;46.480;6.834;2023-03-13T19:34:54;92224.25;;;21.08;38.74
48035;BME280;33812;46.480;6.834;2023-03-13T19:38:55;92207.19;;;21.09;39.02
48035;BME280;33812;46.480;6.834;2023-03-13T19:42:59;92209.00;;;21.12;38.76
48035;BME280;33812;46.480;6.834;2023-03-13T19:47:00;92193.47;;;21.15;39.06
48035;BME280;33812;46.480;6.834;2023-03-13T19:51:02;92199.00;;;21.15;39.45
48035;BME280;33812;46.480;6.834;2023-03-13T19:55:05;92193.09;;;21.07;39.41
48035;BME280;33812;46.480;6.834;2023-03-13T19:59:13;92179.56;;;21.09;39.98
48035;BME280;33812;46.480;6.834;2023-03-13T20:03:15;92175.38;;;21.14;40.26
48035;BME280;33812;46.480;6.834;2023-03-13T20:07:17;92174.88;;;21.16;40.43
48035;BME280;33812;46.480;6.834;2023-03-13T20:11:19;92158.13;;;21.19;40.68
48035;BME280;33812;46.480;6.834;2023-03-13T20:15:22;92164.41;;;21.20;40.98
48035;BME280;33812;46.480;6.834;2023-03-13T20:19:24;92128.00;;;21.21;41.42
48035;BME280;33812;46.480;6.834;2023-03-13T20:23:29;92090.59;;;21.20;41.75
48035;BME280;33812;46.480;6.834;2023-03-13T20:27:32;92104.69;;;21.22;41.70
48035;BME280;33812;46.480;6.834;2023-03-13T20:31:35;92176.78;;;21.24;41.36
48035;BME280;33812;46.480;6.834;2023-03-13T20:35:38;92203.38;;;21.22;41.02
48035;BME280;33812;46.480;6.834;2023-03-13T20:39:41;92219.19;;;21.21;40.19
48035;BME280;33812;46.480;6.834;2023-03-13T20:43:43;92264.66;;;21.20;39.98
48035;BME280;33812;46.480;6.834;2023-03-13T20:47:46;92275.69;;;21.20;39.56
48035;BME280;33812;46.480;6.834;2023-03-13T20:51:48;92328.47;;;21.22;39.91
48035;BME280;33812;46.480;6.834;2023-03-13T20:55:50;92287.97;;;21.19;40.19
48035;BME280;33812;46.480;6.834;2023-03-13T20:59:53;92313.31;;;21.18;40.23
48035;BME280;33812;46.480;6.834;2023-03-13T21:03:56;92344.75;;;21.20;40.78
48035;BME280;33812;46.480;6.834;2023-03-13T21:07:58;92382.66;;;21.20;40.73
48035;BME280;33812;46.480;6.834;2023-03-13T21:12:00;92424.59;;;21.18;40.66
48035;BME280;33812;46.480;6.834;2023-03-13T21:16:03;92438.09;;;21.16;39.67
48035;BME280;33812;46.480;6.834;2023-03-13T21:20:09;92470.47;;;21.16;40.14
48035;BME280;33812;46.480;6.834;2023-03-13T21:24:11;92525.28;;;21.17;39.94
48035;BME280;33812;46.480;6.834;2023-03-13T21:28:13;92529.75;;;21.14;39.46
48035;BME280;33812;46.480;6.834;2023-03-13T21:32:16;92548.31;;;21.14;40.01
48035;BME280;33812;46.480;6.834;2023-03-13T21:36:23;92557.38;;;21.14;39.97
48035;BME280;33812;46.480;6.834;2023-03-13T21:40:46;92615.38;;;21.14;39.90
48035;BME280;33812;46.480;6.834;2023-03-13T21:44:48;92652.53;;;21.13;39.78
48035;BME280;33812;46.480;6.834;2023-03-13T21:48:52;92689.22;;;21.14;39.74